sensor_id;sensor_type;location;lat;lon;timestamp;pressure;altitude;pressure_sealevel;temperature;humidity
42669;BME280;29384;42.028;21.388;2022-08-18T00:00:43;98291.25;;;22.99;70.62
42669;BME280;29384;42.028;21.388;2022-08-18T00:03:10;98293.69;;;23.04;70.16
42669;BME280;29384;42.028;21.388;2022-08-18T00:05:36;98288.81;;;23.06;70.74
42669;BME280;29384;42.028;21.388;2022-08-18T00:08:03;98292.16;;;23.03;70.56
42669;BME280;29384;42.028;21.388;2022-08-18T00:10:29;98276.81;;;23.00;69.93
42669;BME280;29384;42.028;21.388;2022-08-18T00:12:55;98285.16;;;22.98;69.92
42669;BME280;29384;42.028;21.388;2022-08-18T00:15:20;98286.69;;;22.99;70.80
42669;BME280;29384;42.028;21.388;2022-08-18T00:17:46;98284.91;;;22.91;70.98
42669;BME280;29384;42.028;21.388;2022-08-18T00:20:18;98289.13;;;22.80;71.31
42669;BME280;29384;42.028;21.388;2022-08-18T00:22:44;98281.09;;;22.67;71.93
42669;BME280;29384;42.028;21.388;2022-08-18T00:25:11;98293.97;;;22.65;72.34
42669;BME280;29384;42.028;21.388;2022-08-18T00:30:59;98308.81;;;22.54;72.64
42669;BME280;29384;42.028;21.388;2022-08-18T00:33:25;98302.69;;;22.54;72.65
42669;BME280;29384;42.028;21.388;2022-08-18T00:35:51;98308.03;;;22.54;72.34
42669;BME280;29384;42.028;21.388;2022-08-18T00:38:16;98300.50;;;22.56;71.69
42669;BME280;29384;42.028;21.388;2022-08-18T00:40:47;98303.59;;;22.58;71.91
42669;BME280;29384;42.028;21.388;2022-08-18T00:43:16;98302.69;;;22.54;72.61
42669;BME280;29384;42.028;21.388;2022-08-18T00:45:44;98307.84;;;22.59;72.52
42669;BME280;29384;42.028;21.388;2022-08-18T00:48:11;98313.25;;;22.50;72.27
42669;BME280;29384;42.028;21.388;2022-08-18T00:51:11;98306.34;;;22.37;72.61
42669;BME280;29384;42.028;21.388;2022-08-18T00:53:33;98313.66;;;22.40;72.25
42669;BME280;29384;42.028;21.388;2022-08-18T00:56:05;98312.13;;;22.18;72.96
42669;BME280;29384;42.028;21.388;2022-08-18T00:58:43;98320.19;;;22.09;73.70
42669;BME280;29384;42.028;21.388;2022-08-18T01:01:12;98315.28;;;22.11;73.92
42669;BME280;29384;42.028;21.388;2022-08-18T01:03:39;98312.91;;;22.18;73.04
42669;BME280;29384;42.028;21.388;2022-08-18T01:06:14;98310.25;;;22.18;73.32
42669;BME280;29384;42.028;21.388;2022-08-18T01:08:41;98310.31;;;22.10;74.48
42669;BME280;29384;42.028;21.388;2022-08-18T01:11:07;98316.28;;;22.07;74.48
42669;BME280;29384;42.028;21.388;2022-08-18T01:13:34;98304.38;;;22.04;73.83
42669;BME280;29384;42.028;21.388;2022-08-18T01:16:02;98313.16;;;22.05;74.33
42669;BME280;29384;42.028;21.388;2022-08-18T01:18:48;98309.47;;;21.97;74.18
42669;BME280;29384;42.028;21.388;2022-08-18T01:21:31;98317.13;;;21.99;74.36
42669;BME280;29384;42.028;21.388;2022-08-18T01:24:17;98310.06;;;22.03;74.12
42669;BME280;29384;42.028;21.388;2022-08-18T01:26:44;98320.22;;;22.01;74.01
42669;BME280;29384;42.028;21.388;2022-08-18T01:29:15;98311.94;;;22.02;74.97
42669;BME280;29384;42.028;21.388;2022-08-18T01:31:45;98314.97;;;22.13;74.10
42669;BME280;29384;42.028;21.388;2022-08-18T01:34:14;98309.66;;;21.92;74.16
42669;BME280;29384;42.028;21.388;2022-08-18T01:36:41;98314.34;;;21.95;74.51
42669;BME280;29384;42.028;21.388;2022-08-18T01:39:09;98314.25;;;22.04;73.93
42669;BME280;29384;42.028;21.388;2022-08-18T01:41:35;98321.88;;;21.93;75.53
42669;BME280;29384;42.028;21.388;2022-08-18T01:44:02;98310.97;;;21.86;75.55
42669;BME280;29384;42.028;21.388;2022-08-18T01:46:32;98312.75;;;21.94;75.55
42669;BME280;29384;42.028;21.388;2022-08-18T01:48:58;98311.28;;;21.84;75.78
42669;BME280;29384;42.028;21.388;2022-08-18T01:51:26;98319.59;;;21.83;74.83
42669;BME280;29384;42.028;21.388;2022-08-18T01:53:52;98320.34;;;21.83;75.43
42669;BME280;29384;42.028;21.388;2022-08-18T01:56:18;98320.69;;;21.82;75.21
42669;BME280;29384;42.028;21.388;2022-08-18T01:58:44;98311.16;;;21.81;75.43
42669;BME280;29384;42.028;21.388;2022-08-18T02:01:13;98315.50;;;21.85;75.02
42669;BME280;29384;42.028;21.388;2022-08-18T02:03:42;98313.94;;;21.84;75.06
42669;BME280;29384;42.028;21.388;2022-08-18T02:06:11;98313.72;;;21.68;75.33
42669;BME280;29384;42.028;21.388;2022-08-18T02:08:38;98318.63;;;21.66;75.52
42669;BME280;29384;42.028;21.388;2022-08-18T02:11:05;98311.28;;;21.63;76.03
42669;BME280;29384;42.028;21.388;2022-08-18T02:13:31;98319.56;;;21.62;75.64
42669;BME280;29384;42.028;21.388;2022-08-18T02:15:58;98308.47;;;21.60;75.97
42669;BME280;29384;42.028;21.388;2022-08-18T02:18:28;98305.88;;;21.72;75.63
42669;BME280;29384;42.028;21.388;2022-08-18T02:20:56;98306.16;;;21.79;75.85
42669;BME280;29384;42.028;21.388;2022-08-18T02:23:22;98302.41;;;21.80;75.68
42669;BME280;29384;42.028;21.388;2022-08-18T02:25:47;98305.38;;;21.79;76.10
42669;BME280;29384;42.028;21.388;2022-08-18T02:31:34;98312.06;;;21.85;76.10
42669;BME280;29384;42.028;21.388;2022-08-18T02:34:00;98299.66;;;21.68;77.17
42669;BME280;29384;42.028;21.388;2022-08-18T02:36:26;98306.88;;;21.67;77.04
42669;BME280;29384;42.028;21.388;2022-08-18T02:38:52;98300.13;;;21.70;77.06
42669;BME280;29384;42.028;21.388;2022-08-18T02:41:18;98303.53;;;21.50;77.62
42669;BME280;29384;42.028;21.388;2022-08-18T02:43:45;98310.63;;;21.37;77.50
42669;BME280;29384;42.028;21.388;2022-08-18T02:46:13;98305.97;;;21.34;77.38
42669;BME280;29384;42.028;21.388;2022-08-18T02:48:39;98305.16;;;21.33;77.26
42669;BME280;29384;42.028;21.388;2022-08-18T02:51:13;98310.47;;;21.33;77.95
42669;BME280;29384;42.028;21.388;2022-08-18T02:53:43;98307.81;;;21.04;78.79
42669;BME280;29384;42.028;21.388;2022-08-18T02:56:10;98304.66;;;21.01;79.85
42669;BME280;29384;42.028;21.388;2022-08-18T03:02:20;98313.97;;;20.87;79.30
42669;BME280;29384;42.028;21.388;2022-08-18T03:04:47;98323.97;;;20.90;79.48
42669;BME280;29384;42.028;21.388;2022-08-18T03:07:13;98317.91;;;20.72;80.55
42669;BME280;29384;42.028;21.388;2022-08-18T03:09:39;98313.66;;;20.80;81.00
42669;BME280;29384;42.028;21.388;2022-08-18T03:12:05;98320.38;;;20.86;81.71
42669;BME280;29384;42.028;21.388;2022-08-18T03:14:32;98323.19;;;20.89;81.48
42669;BME280;29384;42.028;21.388;2022-08-18T03:16:58;98325.69;;;20.77;81.58
42669;BME280;29384;42.028;21.388;2022-08-18T03:19:28;98323.34;;;20.84;81.75
42669;BME280;29384;42.028;21.388;2022-08-18T03:21:55;98324.94;;;20.76;81.78
42669;BME280;29384;42.028;21.388;2022-08-18T03:24:24;98330.38;;;20.80;79.90
42669;BME280;29384;42.028;21.388;2022-08-18T03:26:51;98321.78;;;20.83;78.70
42669;BME280;29384;42.028;21.388;2022-08-18T03:29:18;98334.72;;;20.93;78.40
42669;BME280;29384;42.028;21.388;2022-08-18T03:31:44;98330.03;;;20.99;77.57
42669;BME280;29384;42.028;21.388;2022-08-18T03:34:13;98338.47;;;21.01;77.55
42669;BME280;29384;42.028;21.388;2022-08-18T03:36:40;98337.53;;;20.97;78.01
42669;BME280;29384;42.028;21.388;2022-08-18T03:39:10;98335.38;;;20.90;78.62
42669;BME280;29384;42.028;21.388;2022-08-18T03:48:21;98350.53;;;20.90;79.03
42669;BME280;29384;42.028;21.388;2022-08-18T03:50:47;98349.91;;;20.93;79.19
42669;BME280;29384;42.028;21.388;2022-08-18T03:53:12;98336.97;;;20.74;79.84
42669;BME280;29384;42.028;21.388;2022-08-18T03:55:41;98341.16;;;20.84;79.51
42669;BME280;29384;42.028;21.388;2022-08-18T03:58:06;98347.53;;;20.91;79.25
42669;BME280;29384;42.028;21.388;2022-08-18T04:00:36;98348.34;;;20.92;78.96
42669;BME280;29384;42.028;21.388;2022-08-18T04:03:02;98341.75;;;20.98;79.14
42669;BME280;29384;42.028;21.388;2022-08-18T04:05:28;98348.66;;;20.99;79.20
42669;BME280;29384;42.028;21.388;2022-08-18T04:07:54;98348.94;;;20.97;79.93
42669;BME280;29384;42.028;21.388;2022-08-18T04:10:24;98346.28;;;21.06;80.05
42669;BME280;29384;42.028;21.388;2022-08-18T04:12:50;98354.56;;;21.05;80.41
42669;BME280;29384;42.028;21.388;2022-08-18T04:15:16;98356.38;;;21.13;80.13
42669;BME280;29384;42.028;21.388;2022-08-18T04:17:42;98361.25;;;21.11;79.41
42669;BME280;29384;42.028;21.388;2022-08-18T04:20:11;98367.34;;;21.11;79.26
42669;BME280;29384;42.028;21.388;2022-08-18T04:22:37;98371.84;;;21.19;78.49
42669;BME280;29384;42.028;21.388;2022-08-18T04:25:02;98376.97;;;21.33;76.45
42669;BME280;29384;42.028;21.388;2022-08-18T04:27:28;98366.88;;;21.56;75.93
42669;BME280;29384;42.028;21.388;2022-08-18T04:29:54;98375.72;;;21.69;75.64
42669;BME280;29384;42.028;21.388;2022-08-18T04:32:23;98382.78;;;21.94;74.89
42669;BME280;29384;42.028;21.388;2022-08-18T04:34:49;98374.94;;;22.19;74.18
42669;BME280;29384;42.028;21.388;2022-08-18T04:37:15;98379.34;;;22.36;74.68
42669;BME280;29384;42.028;21.388;2022-08-18T04:39:41;98381.50;;;22.42;76.02
42669;BME280;29384;42.028;21.388;2022-08-18T04:42:07;98388.81;;;22.66;75.82
42669;BME280;29384;42.028;21.388;2022-08-18T04:44:34;98390.25;;;22.97;73.05
42669;BME280;29384;42.028;21.388;2022-08-18T04:47:04;98392.75;;;23.27;71.59
42669;BME280;29384;42.028;21.388;2022-08-18T04:49:29;98392.00;;;23.51;69.88
42669;BME280;29384;42.028;21.388;2022-08-18T04:51:56;98395.97;;;23.81;68.76
42669;BME280;29384;42.028;21.388;2022-08-18T04:54:41;98398.19;;;24.04;66.92
42669;BME280;29384;42.028;21.388;2022-08-18T05:03:31;98402.88;;;24.47;63.23
42669;BME280;29384;42.028;21.388;2022-08-18T05:05:57;98388.47;;;24.52;63.42
42669;BME280;29384;42.028;21.388;2022-08-18T05:08:25;98408.22;;;24.75;62.21
42669;BME280;29384;42.028;21.388;2022-08-18T05:10:54;98414.28;;;24.88;61.85
42669;BME280;29384;42.028;21.388;2022-08-18T05:13:22;98408.16;;;24.88;61.26
42669;BME280;29384;42.028;21.388;2022-08-18T05:15:57;98408.28;;;25.23;60.62
42669;BME280;29384;42.028;21.388;2022-08-18T05:18:31;98411.50;;;25.44;59.51
42669;BME280;29384;42.028;21.388;2022-08-18T05:20:57;98412.69;;;25.63;59.98
42669;BME280;29384;42.028;21.388;2022-08-18T05:23:23;98420.81;;;25.82;58.76
42669;BME280;29384;42.028;21.388;2022-08-18T05:25:49;98402.97;;;25.90;58.11
42669;BME280;29384;42.028;21.388;2022-08-18T05:28:15;98410.50;;;26.19;57.23
42669;BME280;29384;42.028;21.388;2022-08-18T05:30:41;98398.59;;;26.36;57.62
42669;BME280;29384;42.028;21.388;2022-08-18T05:33:09;98412.09;;;26.59;56.59
42669;BME280;29384;42.028;21.388;2022-08-18T05:35:41;98409.47;;;26.82;56.09
42669;BME280;29384;42.028;21.388;2022-08-18T05:40:58;98415.34;;;27.34;53.70
42669;BME280;29384;42.028;21.388;2022-08-18T05:43:26;98417.63;;;27.58;53.85
42669;BME280;29384;42.028;21.388;2022-08-18T05:45:52;98422.06;;;27.74;53.19
42669;BME280;29384;42.028;21.388;2022-08-18T05:48:18;98413.09;;;27.85;52.11
42669;BME280;29384;42.028;21.388;2022-08-18T05:50:44;98413.47;;;28.14;52.25
42669;BME280;29384;42.028;21.388;2022-08-18T05:53:13;98419.22;;;28.16;51.26
42669;BME280;29384;42.028;21.388;2022-08-18T05:55:47;98419.34;;;28.27;50.21
42669;BME280;29384;42.028;21.388;2022-08-18T05:58:44;98423.09;;;27.88;50.00
42669;BME280;29384;42.028;21.388;2022-08-18T06:01:17;98423.84;;;28.16;48.95
42669;BME280;29384;42.028;21.388;2022-08-18T06:03:48;98415.88;;;28.53;49.51
42669;BME280;29384;42.028;21.388;2022-08-18T06:06:19;98423.09;;;28.45;48.80
42669;BME280;29384;42.028;21.388;2022-08-18T06:11:35;98426.91;;;28.44;49.03
42669;BME280;29384;42.028;21.388;2022-08-18T06:14:00;98416.56;;;28.80;47.70
42669;BME280;29384;42.028;21.388;2022-08-18T06:16:56;98420.91;;;28.95;47.89
42669;BME280;29384;42.028;21.388;2022-08-18T06:19:33;98417.19;;;29.03;47.34
42669;BME280;29384;42.028;21.388;2022-08-18T06:22:12;98417.25;;;29.11;45.90
42669;BME280;29384;42.028;21.388;2022-08-18T06:25:26;98414.38;;;29.34;46.57
42669;BME280;29384;42.028;21.388;2022-08-18T06:31:04;98427.31;;;29.62;44.94
42669;BME280;29384;42.028;21.388;2022-08-18T06:36:59;98430.13;;;29.80;45.42
42669;BME280;29384;42.028;21.388;2022-08-18T06:39:22;98429.09;;;30.06;44.94
42669;BME280;29384;42.028;21.388;2022-08-18T06:41:49;98427.56;;;30.05;44.76
42669;BME280;29384;42.028;21.388;2022-08-18T06:50:29;98424.19;;;30.18;44.06
42669;BME280;29384;42.028;21.388;2022-08-18T06:53:03;98418.84;;;30.33;45.25
42669;BME280;29384;42.028;21.388;2022-08-18T06:58:00;98419.66;;;30.40;43.92
42669;BME280;29384;42.028;21.388;2022-08-18T07:00:29;98416.63;;;30.60;42.16
42669;BME280;29384;42.028;21.388;2022-08-18T07:03:12;98422.88;;;30.78;42.65
42669;BME280;29384;42.028;21.388;2022-08-18T07:08:34;98406.72;;;31.03;42.71
42669;BME280;29384;42.028;21.388;2022-08-18T07:13:40;98391.31;;;31.36;41.28
42669;BME280;29384;42.028;21.388;2022-08-18T07:16:29;98398.63;;;31.28;41.09
42669;BME280;29384;42.028;21.388;2022-08-18T07:19:17;98400.56;;;31.38;40.13
42669;BME280;29384;42.028;21.388;2022-08-18T07:21:59;98397.09;;;31.56;41.41
42669;BME280;29384;42.028;21.388;2022-08-18T07:24:40;98401.31;;;31.50;40.91
42669;BME280;29384;42.028;21.388;2022-08-18T07:29:38;98398.22;;;31.55;39.80
42669;BME280;29384;42.028;21.388;2022-08-18T07:32:15;98400.50;;;31.88;39.17
42669;BME280;29384;42.028;21.388;2022-08-18T07:34:46;98402.44;;;31.74;38.82
42669;BME280;29384;42.028;21.388;2022-08-18T07:37:20;98395.84;;;31.85;39.14
42669;BME280;29384;42.028;21.388;2022-08-18T07:45:28;98399.31;;;31.86;38.66
42669;BME280;29384;42.028;21.388;2022-08-18T07:48:18;98391.97;;;31.94;39.37
42669;BME280;29384;42.028;21.388;2022-08-18T07:50:55;98387.72;;;31.96;37.43
42669;BME280;29384;42.028;21.388;2022-08-18T08:08:18;98379.09;;;32.33;37.01
42669;BME280;29384;42.028;21.388;2022-08-18T08:20:22;98370.16;;;32.44;37.34
42669;BME280;29384;42.028;21.388;2022-08-18T08:23:00;98371.38;;;32.28;38.12
42669;BME280;29384;42.028;21.388;2022-08-18T08:31:53;98368.69;;;32.21;39.75
42669;BME280;29384;42.028;21.388;2022-08-18T08:37:14;98366.31;;;32.41;39.35
42669;BME280;29384;42.028;21.388;2022-08-18T08:40:04;98367.91;;;32.24;38.96
42669;BME280;29384;42.028;21.388;2022-08-18T08:48:44;98359.66;;;32.56;37.88
42669;BME280;29384;42.028;21.388;2022-08-18T08:54:39;98351.44;;;32.67;38.02
42669;BME280;29384;42.028;21.388;2022-08-18T08:56:44;98350.69;;;32.67;36.63
42669;BME280;29384;42.028;21.388;2022-08-18T08:59:15;98339.50;;;32.61;37.08
42669;BME280;29384;42.028;21.388;2022-08-18T09:04:46;98337.59;;;32.54;36.92
42669;BME280;29384;42.028;21.388;2022-08-18T09:13:31;98330.03;;;32.87;36.75
42669;BME280;29384;42.028;21.388;2022-08-18T09:18:33;98321.97;;;33.25;36.50
42669;BME280;29384;42.028;21.388;2022-08-18T09:37:43;98318.44;;;33.31;39.17
42669;BME280;29384;42.028;21.388;2022-08-18T09:40:17;98304.53;;;33.29;39.97
42669;BME280;29384;42.028;21.388;2022-08-18T09:43:20;98304.91;;;33.28;37.24
42669;BME280;29384;42.028;21.388;2022-08-18T09:54:19;98278.41;;;33.81;40.49
42669;BME280;29384;42.028;21.388;2022-08-18T10:01:59;98267.47;;;33.88;38.09
42669;BME280;29384;42.028;21.388;2022-08-18T10:10:06;98250.88;;;33.51;34.72
42669;BME280;29384;42.028;21.388;2022-08-18T10:15:41;98258.16;;;33.58;35.91
42669;BME280;29384;42.028;21.388;2022-08-18T10:32:41;98243.94;;;33.50;35.04
42669;BME280;29384;42.028;21.388;2022-08-18T10:35:56;98247.81;;;33.46;34.83
42669;BME280;29384;42.028;21.388;2022-08-18T10:38:40;98249.34;;;33.50;35.13
42669;BME280;29384;42.028;21.388;2022-08-18T10:41:35;98229.25;;;33.48;33.50
42669;BME280;29384;42.028;21.388;2022-08-18T10:47:25;98227.78;;;33.40;33.33
42669;BME280;29384;42.028;21.388;2022-08-18T10:49:52;98221.47;;;33.50;33.65
42669;BME280;29384;42.028;21.388;2022-08-18T10:55:07;98227.44;;;33.68;31.34
42669;BME280;29384;42.028;21.388;2022-08-18T11:03:56;98214.88;;;33.51;32.29
42669;BME280;29384;42.028;21.388;2022-08-18T11:06:19;98207.50;;;33.51;32.70
42669;BME280;29384;42.028;21.388;2022-08-18T11:08:48;98207.91;;;33.50;32.35
42669;BME280;29384;42.028;21.388;2022-08-18T11:11:20;98197.44;;;33.52;33.80
42669;BME280;29384;42.028;21.388;2022-08-18T11:19:48;98205.13;;;33.57;31.60
42669;BME280;29384;42.028;21.388;2022-08-18T11:22:29;98204.38;;;33.53;31.09
42669;BME280;29384;42.028;21.388;2022-08-18T11:24:56;98200.47;;;33.58;31.00
42669;BME280;29384;42.028;21.388;2022-08-18T11:27:30;98188.94;;;33.46;31.26
42669;BME280;29384;42.028;21.388;2022-08-18T11:30:02;98189.84;;;33.40;32.19
42669;BME280;29384;42.028;21.388;2022-08-18T11:32:34;98178.19;;;33.39;31.58
42669;BME280;29384;42.028;21.388;2022-08-18T11:35:32;98181.75;;;33.36;32.20
42669;BME280;29384;42.028;21.388;2022-08-18T11:38:01;98175.81;;;33.45;31.49
42669;BME280;29384;42.028;21.388;2022-08-18T11:40:42;98176.50;;;33.52;31.15
42669;BME280;29384;42.028;21.388;2022-08-18T11:45:50;98167.19;;;33.53;32.98
42669;BME280;29384;42.028;21.388;2022-08-18T11:48:21;98175.31;;;33.57;31.57
42669;BME280;29384;42.028;21.388;2022-08-18T12:01:49;98171.75;;;33.60;31.14
42669;BME280;29384;42.028;21.388;2022-08-18T12:04:28;98170.84;;;33.70;33.65
42669;BME280;29384;42.028;21.388;2022-08-18T12:07:03;98162.44;;;33.65;32.26
42669;BME280;29384;42.028;21.388;2022-08-18T12:17:53;98142.00;;;33.84;32.71
42669;BME280;29384;42.028;21.388;2022-08-18T12:20:19;98149.00;;;33.81;28.83
42669;BME280;29384;42.028;21.388;2022-08-18T12:22:46;98150.63;;;33.78;29.52
42669;BME280;29384;42.028;21.388;2022-08-18T12:25:18;98142.06;;;33.80;31.96
42669;BME280;29384;42.028;21.388;2022-08-18T12:27:44;98135.88;;;33.79;31.28
42669;BME280;29384;42.028;21.388;2022-08-18T12:33:31;98136.94;;;33.86;31.26
42669;BME280;29384;42.028;21.388;2022-08-18T12:35:57;98133.38;;;33.89;33.31
42669;BME280;29384;42.028;21.388;2022-08-18T12:38:22;98135.16;;;33.99;33.54
42669;BME280;29384;42.028;21.388;2022-08-18T12:40:48;98128.63;;;34.00;32.19
42669;BME280;29384;42.028;21.388;2022-08-18T12:43:14;98118.09;;;34.02;32.11
42669;BME280;29384;42.028;21.388;2022-08-18T12:49:03;98121.59;;;33.99;29.00
42669;BME280;29384;42.028;21.388;2022-08-18T12:51:29;98125.94;;;33.96;27.95
42669;BME280;29384;42.028;21.388;2022-08-18T12:53:54;98106.75;;;34.11;27.87
42669;BME280;29384;42.028;21.388;2022-08-18T12:56:26;98116.16;;;34.26;26.58
42669;BME280;29384;42.028;21.388;2022-08-18T12:58:55;98101.84;;;33.98;27.75
42669;BME280;29384;42.028;21.388;2022-08-18T13:04:43;98099.91;;;33.75;28.68
42669;BME280;29384;42.028;21.388;2022-08-18T13:07:10;98110.16;;;33.88;28.71
42669;BME280;29384;42.028;21.388;2022-08-18T13:09:36;98105.22;;;33.83;28.68
42669;BME280;29384;42.028;21.388;2022-08-18T13:12:02;98106.84;;;33.76;28.46
42669;BME280;29384;42.028;21.388;2022-08-18T13:14:28;98097.75;;;33.63;27.68
42669;BME280;29384;42.028;21.388;2022-08-18T13:20:16;98093.94;;;33.84;28.01
42669;BME280;29384;42.028;21.388;2022-08-18T13:22:42;98094.44;;;33.79;27.44
42669;BME280;29384;42.028;21.388;2022-08-18T13:25:14;98086.84;;;33.67;28.87
42669;BME280;29384;42.028;21.388;2022-08-18T13:27:39;98077.72;;;33.57;28.50
42669;BME280;29384;42.028;21.388;2022-08-18T13:30:09;98079.44;;;33.44;28.57
42669;BME280;29384;42.028;21.388;2022-08-18T13:32:35;98075.91;;;33.47;31.08
42669;BME280;29384;42.028;21.388;2022-08-18T13:35:02;98077.78;;;33.50;30.77
42669;BME280;29384;42.028;21.388;2022-08-18T13:37:27;98078.97;;;33.49;30.91
42669;BME280;29384;42.028;21.388;2022-08-18T13:39:56;98077.06;;;33.46;29.82
42669;BME280;29384;42.028;21.388;2022-08-18T13:42:22;98082.47;;;33.46;30.19
42669;BME280;29384;42.028;21.388;2022-08-18T13:44:47;98078.22;;;33.48;29.64
42669;BME280;29384;42.028;21.388;2022-08-18T13:50:36;98077.47;;;33.48;29.98
42669;BME280;29384;42.028;21.388;2022-08-18T13:53:08;98082.06;;;33.51;31.19
42669;BME280;29384;42.028;21.388;2022-08-18T13:55:37;98078.66;;;33.43;29.17
42669;BME280;29384;42.028;21.388;2022-08-18T13:58:03;98079.91;;;33.35;30.53
42669;BME280;29384;42.028;21.388;2022-08-18T14:00:28;98075.69;;;33.34;29.82
42669;BME280;29384;42.028;21.388;2022-08-18T14:02:54;98067.50;;;33.38;28.22
42669;BME280;29384;42.028;21.388;2022-08-18T14:05:21;98074.16;;;33.33;28.01
42669;BME280;29384;42.028;21.388;2022-08-18T14:07:47;98063.72;;;33.31;29.80
42669;BME280;29384;42.028;21.388;2022-08-18T14:10:13;98066.78;;;33.34;29.78
42669;BME280;29384;42.028;21.388;2022-08-18T14:12:40;98061.31;;;33.37;29.47
42669;BME280;29384;42.028;21.388;2022-08-18T14:15:10;98064.31;;;33.43;29.97
42669;BME280;29384;42.028;21.388;2022-08-18T14:17:36;98052.66;;;33.46;28.39
42669;BME280;29384;42.028;21.388;2022-08-18T14:20:03;98052.72;;;33.42;28.79
42669;BME280;29384;42.028;21.388;2022-08-18T14:22:52;98047.41;;;33.35;29.72
42669;BME280;29384;42.028;21.388;2022-08-18T14:25:36;98053.59;;;33.36;30.14
42669;BME280;29384;42.028;21.388;2022-08-18T14:28:20;98051.28;;;33.34;29.85
42669;BME280;29384;42.028;21.388;2022-08-18T14:30:46;98046.69;;;33.31;29.84
42669;BME280;29384;42.028;21.388;2022-08-18T14:33:12;98047.59;;;33.21;28.84
42669;BME280;29384;42.028;21.388;2022-08-18T14:35:40;98052.78;;;33.12;29.40
42669;BME280;29384;42.028;21.388;2022-08-18T14:38:06;98063.28;;;33.06;28.88
42669;BME280;29384;42.028;21.388;2022-08-18T14:40:33;98051.69;;;33.05;30.59
42669;BME280;29384;42.028;21.388;2022-08-18T14:42:59;98058.28;;;33.04;30.23
42669;BME280;29384;42.028;21.388;2022-08-18T14:45:27;98051.28;;;33.07;30.21
42669;BME280;29384;42.028;21.388;2022-08-18T14:47:54;98045.03;;;33.10;31.46
42669;BME280;29384;42.028;21.388;2022-08-18T14:50:20;98048.47;;;33.14;29.55
42669;BME280;29384;42.028;21.388;2022-08-18T14:52:46;98048.38;;;33.21;29.77
42669;BME280;29384;42.028;21.388;2022-08-18T14:55:13;98045.66;;;33.21;29.35
42669;BME280;29384;42.028;21.388;2022-08-18T14:57:39;98046.88;;;33.17;29.72
42669;BME280;29384;42.028;21.388;2022-08-18T15:00:08;98043.84;;;33.15;29.61
42669;BME280;29384;42.028;21.388;2022-08-18T15:06:01;98033.06;;;33.07;28.56
42669;BME280;29384;42.028;21.388;2022-08-18T15:08:27;98035.34;;;33.13;28.69
42669;BME280;29384;42.028;21.388;2022-08-18T15:10:54;98026.41;;;33.16;28.83
42669;BME280;29384;42.028;21.388;2022-08-18T15:13:20;98022.19;;;33.11;30.38
42669;BME280;29384;42.028;21.388;2022-08-18T15:15:46;98023.84;;;33.05;30.08
42669;BME280;29384;42.028;21.388;2022-08-18T15:18:11;98015.47;;;33.23;28.69
42669;BME280;29384;42.028;21.388;2022-08-18T15:20:38;98019.59;;;33.31;29.66
42669;BME280;29384;42.028;21.388;2022-08-18T15:23:24;98017.75;;;33.24;30.45
42669;BME280;29384;42.028;21.388;2022-08-18T15:26:09;98019.03;;;33.16;31.10
42669;BME280;29384;42.028;21.388;2022-08-18T15:28:36;98020.66;;;33.10;31.51
42669;BME280;29384;42.028;21.388;2022-08-18T15:31:02;98008.50;;;32.95;30.91
42669;BME280;29384;42.028;21.388;2022-08-18T15:33:28;98024.00;;;32.91;31.07
42669;BME280;29384;42.028;21.388;2022-08-18T15:35:53;98020.97;;;32.85;31.53
42669;BME280;29384;42.028;21.388;2022-08-18T15:38:22;98020.25;;;32.81;31.70
42669;BME280;29384;42.028;21.388;2022-08-18T15:40:51;98024.94;;;32.77;31.61
42669;BME280;29384;42.028;21.388;2022-08-18T15:43:17;98015.69;;;32.74;30.96
42669;BME280;29384;42.028;21.388;2022-08-18T15:45:44;98018.81;;;32.73;31.38
42669;BME280;29384;42.028;21.388;2022-08-18T15:48:13;98016.44;;;32.75;31.10
42669;BME280;29384;42.028;21.388;2022-08-18T15:50:41;98021.09;;;32.74;29.50
42669;BME280;29384;42.028;21.388;2022-08-18T15:53:09;98010.31;;;32.71;29.86
42669;BME280;29384;42.028;21.388;2022-08-18T15:55:37;98016.16;;;32.69;29.42
42669;BME280;29384;42.028;21.388;2022-08-18T15:58:03;98011.16;;;32.64;29.63
42669;BME280;29384;42.028;21.388;2022-08-18T16:00:30;98008.09;;;32.62;29.85
42669;BME280;29384;42.028;21.388;2022-08-18T16:06:20;98020.16;;;32.54;30.60
42669;BME280;29384;42.028;21.388;2022-08-18T16:08:47;98009.03;;;32.48;29.93
42669;BME280;29384;42.028;21.388;2022-08-18T16:11:13;98011.78;;;32.45;31.15
42669;BME280;29384;42.028;21.388;2022-08-18T16:13:40;98019.97;;;32.37;31.81
42669;BME280;29384;42.028;21.388;2022-08-18T16:16:18;98012.69;;;32.31;31.89
42669;BME280;29384;42.028;21.388;2022-08-18T16:18:44;98013.09;;;32.26;31.97
42669;BME280;29384;42.028;21.388;2022-08-18T16:21:12;98015.84;;;32.22;31.08
42669;BME280;29384;42.028;21.388;2022-08-18T16:23:43;98018.19;;;32.20;30.99
42669;BME280;29384;42.028;21.388;2022-08-18T16:26:10;98014.78;;;32.16;31.54
42669;BME280;29384;42.028;21.388;2022-08-18T16:28:41;98022.91;;;32.12;31.76
42669;BME280;29384;42.028;21.388;2022-08-18T16:31:08;98018.34;;;32.06;32.42
42669;BME280;29384;42.028;21.388;2022-08-18T16:33:34;98015.66;;;32.02;32.83
42669;BME280;29384;42.028;21.388;2022-08-18T16:36:05;98018.41;;;31.99;32.86
42669;BME280;29384;42.028;21.388;2022-08-18T16:38:33;98020.38;;;31.95;33.35
42669;BME280;29384;42.028;21.388;2022-08-18T16:41:06;98018.88;;;31.86;33.54
42669;BME280;29384;42.028;21.388;2022-08-18T16:43:34;98012.34;;;31.80;34.21
42669;BME280;29384;42.028;21.388;2022-08-18T16:46:01;98012.00;;;31.75;34.61
42669;BME280;29384;42.028;21.388;2022-08-18T16:48:30;98005.88;;;31.71;34.93
42669;BME280;29384;42.028;21.388;2022-08-18T16:50:57;98014.41;;;31.65;34.60
42669;BME280;29384;42.028;21.388;2022-08-18T16:53:22;98013.34;;;31.56;34.65